Time;durP1;ratioP1;P1;durP2;ratioP2;P2;SDS_P1;SDS_P2;PMS_P1;PMS_P2;Temp;Humidity;BMP_temperature;BMP_pressure;BME280_temperature;BME280_humidity;BME280_pressure;Samples;Min_cycle;Max_cycle;Signal;HPM_P1;HPM_P2
2022/09/19 00:01:16;;;;;;;0.57;0.57;;;;;;;8.99;100.00;98170.59;5117401;28;20272;-64
2022/09/19 00:03:44;;;;;;;0.57;0.57;;;;;;;8.96;100.00;98173.41;5117388;28;20259;-65
2022/09/19 00:06:13;;;;;;;0.70;0.60;;;;;;;8.89;100.00;98167.69;5116594;28;20267;-64
2022/09/19 00:08:42;;;;;;;0.40;0.40;;;;;;;8.74;100.00;98175.66;5117255;28;20223;-64
2022/09/19 00:11:11;;;;;;;0.60;0.60;;;;;;;8.62;100.00;98181.72;5115465;28;20697;-63
2022/09/19 00:13:45;;;;;;;0.47;0.47;;;;;;;8.47;100.00;98185.25;5117235;28;20282;-63
2022/09/19 00:16:13;;;;;;;0.63;0.53;;;;;;;8.32;100.00;98184.38;5086466;28;20222;-65
2022/09/19 00:18:40;;;;;;;0.50;0.50;;;;;;;8.21;100.00;98180.69;5116990;28;20319;-66
2022/09/19 00:21:07;;;;;;;0.83;0.50;;;;;;;8.11;100.00;98196.16;5116881;28;20636;-67
2022/09/19 00:26:19;;;;;;;0.50;0.50;;;;;;;7.84;100.00;98186.38;5116865;28;20260;-68
2022/09/19 00:28:46;;;;;;;0.77;0.57;;;;;;;7.81;100.00;98176.00;5113773;28;20242;-68
2022/09/19 00:31:18;;;;;;;0.70;0.50;;;;;;;7.73;100.00;98175.59;5112051;28;20233;-68
2022/09/19 00:33:46;;;;;;;1.87;0.60;;;;;;;7.61;100.00;98189.44;5116163;28;20539;-67
2022/09/19 00:36:13;;;;;;;0.50;0.50;;;;;;;7.51;100.00;98190.91;5115079;28;20326;-66
2022/09/19 00:38:40;;;;;;;0.50;0.50;;;;;;;7.50;100.00;98204.97;5116738;28;20305;-67
2022/09/19 00:41:07;;;;;;;0.40;0.40;;;;;;;7.40;100.00;98207.28;5116819;28;20222;-67
2022/09/19 00:43:46;;;;;;;0.40;0.40;;;;;;;7.40;100.00;98209.03;5115605;28;20226;-67
2022/09/19 00:46:13;;;;;;;1.07;0.50;;;;;;;7.38;100.00;98205.66;5116630;28;20265;-68
2022/09/19 00:48:43;;;;;;;0.57;0.47;;;;;;;7.42;100.00;98202.78;5116588;28;20266;-67
2022/09/19 00:51:11;;;;;;;0.70;0.43;;;;;;;7.34;100.00;98202.34;5115738;28;20230;-68
2022/09/19 00:53:38;;;;;;;1.07;0.40;;;;;;;7.26;100.00;98203.69;5116504;28;20620;-68
2022/09/19 00:56:06;;;;;;;0.40;0.40;;;;;;;7.28;100.00;98207.13;5116508;28;20225;-67
2022/09/19 00:58:36;;;;;;;0.30;0.30;;;;;;;7.26;100.00;98211.59;5116588;28;20273;-67
2022/09/19 01:01:02;;;;;;;0.40;0.40;;;;;;;7.24;100.00;98205.56;5115917;28;20287;-67
2022/09/19 01:03:30;;;;;;;0.50;0.40;;;;;;;7.18;100.00;98208.53;5114848;28;20257;-67
2022/09/19 01:06:13;;;;;;;0.40;0.40;;;;;;;7.23;100.00;98214.41;5116549;28;20226;-68
2022/09/19 01:09:14;;;;;;;0.40;0.37;;;;;;;7.16;100.00;98213.03;5116528;28;20237;-68
2022/09/19 01:12:01;;;;;;;0.40;0.40;;;;;;;7.12;100.00;98219.38;5082571;28;20296;-68
2022/09/19 01:14:42;;;;;;;0.43;0.43;;;;;;;7.14;100.00;98217.50;5116444;28;20322;-69
2022/09/19 01:17:15;;;;;;;0.40;0.40;;;;;;;7.13;100.00;98222.84;5085706;28;20452;-69
2022/09/19 01:20:07;;;;;;;0.47;0.40;;;;;;;7.07;100.00;98213.53;5116423;28;20654;-69
2022/09/19 01:22:46;;;;;;;0.40;0.40;;;;;;;7.07;100.00;98215.28;5115278;28;20265;-69
2022/09/19 01:25:22;;;;;;;0.40;0.40;;;;;;;7.03;100.00;98211.16;5116333;28;20271;-69
2022/09/19 01:28:20;;;;;;;0.40;0.40;;;;;;;7.04;100.00;98213.72;5114687;28;20485;-70
2022/09/19 01:31:16;;;;;;;0.50;0.40;;;;;;;7.01;100.00;98216.47;5069698;28;20635;-69
2022/09/19 01:33:43;;;;;;;0.40;0.40;;;;;;;7.00;100.00;98222.66;5116007;28;20214;-70
2022/09/19 01:36:14;;;;;;;0.50;0.50;;;;;;;6.93;100.00;98223.94;5116210;28;20277;-69
2022/09/19 01:38:42;;;;;;;0.40;0.40;;;;;;;6.94;100.00;98230.88;5101426;28;20219;-69
2022/09/19 01:41:10;;;;;;;0.50;0.50;;;;;;;6.96;100.00;98236.91;5120028;28;20229;-69
2022/09/19 01:43:38;;;;;;;0.50;0.50;;;;;;;6.98;100.00;98235.06;5117762;28;20247;-69
2022/09/19 01:46:12;;;;;;;0.50;0.50;;;;;;;6.96;100.00;98226.38;5116207;28;20711;-70
2022/09/19 01:48:47;;;;;;;9.80;0.77;;;;;;;7.00;100.00;98222.66;5089679;28;20234;-69
2022/09/19 01:51:25;;;;;;;0.80;0.80;;;;;;;6.98;100.00;98228.94;5119716;28;20260;-68
2022/09/19 01:54:06;;;;;;;0.50;0.50;;;;;;;7.02;100.00;98236.56;5117928;28;20656;-69
2022/09/19 01:56:41;;;;;;;1.90;0.70;;;;;;;6.99;100.00;98231.50;5119874;28;20230;-69
2022/09/19 01:59:22;;;;;;;1.30;0.60;;;;;;;6.99;100.00;98242.00;5119824;28;20577;-69
2022/09/19 02:01:53;;;;;;;0.60;0.60;;;;;;;7.02;100.00;98233.09;5119484;28;20330;-67
2022/09/19 02:04:24;;;;;;;0.80;0.60;;;;;;;7.01;100.00;98229.63;5088524;28;20302;-67
2022/09/19 02:06:58;;;;;;;0.80;0.80;;;;;;;6.97;100.00;98228.06;5119599;28;20278;-67
2022/09/19 02:09:32;;;;;;;0.97;0.80;;;;;;;6.95;100.00;98235.19;5119639;28;20254;-67
2022/09/19 02:12:02;;;;;;;0.77;0.77;;;;;;;6.97;100.00;98229.88;5118923;28;20230;-66
2022/09/19 02:14:34;;;;;;;0.90;0.70;;;;;;;6.94;100.00;98233.50;5119476;28;20277;-66
2022/09/19 02:17:06;;;;;;;1.00;0.80;;;;;;;7.01;100.00;98234.88;5119544;28;20230;-67
2022/09/19 02:19:37;;;;;;;0.80;0.80;;;;;;;7.10;100.00;98236.16;5117070;28;20282;-66
2022/09/19 02:22:08;;;;;;;1.97;0.90;;;;;;;7.08;100.00;98235.41;5088799;28;20567;-66
2022/09/19 02:24:38;;;;;;;0.87;0.80;;;;;;;7.06;100.00;98237.25;5110666;28;20328;-66
2022/09/19 02:27:09;;;;;;;0.93;0.80;;;;;;;7.12;100.00;98236.94;5119173;28;20574;-66
2022/09/19 02:29:41;;;;;;;1.33;0.90;;;;;;;7.22;100.00;98244.25;5118503;28;20226;-66
2022/09/19 02:32:09;;;;;;;3.50;1.40;;;;;;;7.30;100.00;98252.56;5119167;28;20640;-65
2022/09/19 02:34:36;;;;;;;2.50;1.23;;;;;;;7.36;100.00;98241.72;5119140;28;20245;-66
2022/09/19 02:37:09;;;;;;;0.97;0.80;;;;;;;7.35;100.00;98240.84;5119142;28;20221;-65
2022/09/19 02:39:44;;;;;;;1.00;0.90;;;;;;;7.38;100.00;98239.84;5118305;28;20236;-65
2022/09/19 02:42:19;;;;;;;1.43;0.80;;;;;;;7.42;100.00;98242.22;5119003;28;20337;-66
2022/09/19 02:45:02;;;;;;;2.10;1.00;;;;;;;7.37;100.00;98243.41;5118943;28;20253;-65
2022/09/19 02:47:36;;;;;;;1.53;0.90;;;;;;;7.36;100.00;98233.81;5116378;28;20226;-65
2022/09/19 02:50:10;;;;;;;1.50;0.70;;;;;;;7.36;100.00;98241.72;5118677;28;20638;-65
2022/09/19 02:52:38;;;;;;;0.93;0.83;;;;;;;7.33;100.00;98241.88;5118628;28;20665;-65
2022/09/19 02:55:11;;;;;;;2.30;1.00;;;;;;;7.29;100.00;98240.34;5117791;28;20281;-65
2022/09/19 02:57:40;;;;;;;2.17;0.87;;;;;;;7.33;100.00;98247.13;5118638;28;20230;-64
2022/09/19 03:00:11;;;;;;;1.50;0.80;;;;;;;7.28;100.00;98251.81;5114515;28;20591;-65
2022/09/19 03:02:41;;;;;;;1.80;0.70;;;;;;;7.32;100.00;98245.44;5118583;28;20284;-65
2022/09/19 03:05:14;;;;;;;2.40;0.80;;;;;;;7.36;100.00;98249.59;5117909;28;20299;-65
2022/09/19 03:07:45;;;;;;;1.63;1.00;;;;;;;7.49;100.00;98253.25;5118495;28;20315;-65
2022/09/19 03:10:14;;;;;;;1.97;0.80;;;;;;;7.55;100.00;98252.91;5118320;28;20265;-65
2022/09/19 03:12:46;;;;;;;1.43;0.83;;;;;;;7.61;100.00;98261.34;5115965;28;20259;-65
2022/09/19 03:15:16;;;;;;;1.60;0.93;;;;;;;7.64;100.00;98263.78;5118198;28;20241;-65
2022/09/19 03:17:49;;;;;;;2.17;1.10;;;;;;;7.63;100.00;98267.34;5118243;28;20235;-65
2022/09/19 03:20:15;;;;;;;1.83;1.07;;;;;;;7.62;100.00;98270.06;5118105;28;20229;-65
2022/09/19 03:22:44;;;;;;;2.40;0.93;;;;;;;7.70;100.00;98267.84;5117356;28;20226;-65
2022/09/19 03:25:13;;;;;;;1.27;1.00;;;;;;;7.72;100.00;98272.06;5118114;28;20230;-65
2022/09/19 03:27:40;;;;;;;2.73;0.97;;;;;;;7.85;100.00;98277.53;5118026;28;20226;-65
2022/09/19 03:30:09;;;;;;;1.40;1.00;;;;;;;7.94;100.00;98282.25;5117939;28;20288;-65
2022/09/19 03:32:39;;;;;;;1.50;0.80;;;;;;;8.05;100.00;98280.72;5117231;28;20713;-65
2022/09/19 03:35:06;;;;;;;2.97;0.90;;;;;;;8.01;100.00;98278.34;5117761;28;20328;-65
2022/09/19 03:37:33;;;;;;;1.97;0.90;;;;;;;8.09;100.00;98281.41;5116013;28;20226;-65
2022/09/19 03:40:01;;;;;;;2.30;1.10;;;;;;;8.16;100.00;98277.47;5117656;28;20312;-65
2022/09/19 03:42:28;;;;;;;3.90;0.80;;;;;;;8.11;100.00;98267.22;5117174;28;20222;-65
2022/09/19 03:44:55;;;;;;;2.00;1.07;;;;;;;8.13;100.00;98267.09;5117651;28;20223;-65
2022/09/19 03:47:22;;;;;;;1.43;1.00;;;;;;;8.13;100.00;98277.63;5117650;28;20222;-65
2022/09/19 03:49:50;;;;;;;2.77;1.00;;;;;;;8.17;100.00;98279.16;5117514;28;20225;-65
2022/09/19 03:52:17;;;;;;;2.50;1.10;;;;;;;8.19;100.00;98274.66;5116876;28;20305;-65
2022/09/19 03:54:44;;;;;;;2.30;0.90;;;;;;;8.30;100.00;98285.47;5117383;28;20282;-66
2022/09/19 03:57:11;;;;;;;2.47;0.80;;;;;;;8.34;100.00;98272.03;5117436;28;20223;-66
2022/09/19 03:59:39;;;;;;;2.67;1.10;;;;;;;8.39;100.00;98279.69;5117436;28;20222;-67
2022/09/19 04:02:07;;;;;;;3.83;1.13;;;;;;;8.43;100.00;98283.81;5116365;28;20230;-65
2022/09/19 04:04:34;;;;;;;3.50;0.90;;;;;;;8.48;100.00;98298.44;5115698;28;20258;-65
2022/09/19 04:07:02;;;;;;;1.13;0.70;;;;;;;8.52;100.00;98301.72;5117266;28;20310;-65
2022/09/19 04:09:30;;;;;;;1.53;0.90;;;;;;;8.58;100.00;98301.38;5117235;28;20272;-65
2022/09/19 04:11:56;;;;;;;3.40;0.80;;;;;;;8.54;100.00;98302.47;5116616;28;20263;-65
2022/09/19 04:14:24;;;;;;;1.60;0.70;;;;;;;8.54;100.00;98299.84;5114871;28;20577;-65
2022/09/19 04:16:51;;;;;;;2.30;1.00;;;;;;;8.57;100.00;98300.50;5117221;28;20277;-65
2022/09/19 04:19:18;;;;;;;2.23;0.97;;;;;;;8.55;100.00;98302.38;5117138;28;20254;-65
2022/09/19 04:21:44;;;;;;;9.37;1.57;;;;;;;8.58;100.00;98306.63;5116464;28;20223;-66
2022/09/19 04:24:14;;;;;;;3.43;1.00;;;;;;;8.57;100.00;98302.31;5108892;28;20272;-65
2022/09/19 04:26:43;;;;;;;2.83;1.20;;;;;;;8.52;100.00;98301.72;5117047;28;20277;-65
2022/09/19 04:29:11;;;;;;;1.40;0.83;;;;;;;8.55;100.00;98296.25;5116960;28;20223;-65
2022/09/19 04:31:39;;;;;;;2.10;0.90;;;;;;;8.58;100.00;98296.09;5114734;28;20224;-65
2022/09/19 04:34:06;;;;;;;2.13;1.10;;;;;;;8.62;100.00;98303.72;5116794;28;20559;-65
2022/09/19 04:36:33;;;;;;;2.13;1.00;;;;;;;8.65;100.00;98310.59;5116678;28;20248;-66
2022/09/19 04:39:02;;;;;;;2.70;1.10;;;;;;;8.65;100.00;98315.88;5116735;28;20223;-65
2022/09/19 04:41:32;;;;;;;1.90;0.90;;;;;;;8.65;100.00;98313.25;5116064;28;20226;-65
2022/09/19 04:43:59;;;;;;;1.57;0.97;;;;;;;8.63;100.00;98321.22;5116664;28;20289;-65
2022/09/19 04:46:25;;;;;;;1.63;0.80;;;;;;;8.66;100.00;98322.84;5116668;28;20293;-65
2022/09/19 04:48:54;;;;;;;1.30;1.00;;;;;;;8.72;100.00;98323.34;5116678;28;20222;-65
2022/09/19 04:51:21;;;;;;;4.53;1.23;;;;;;;8.72;100.00;98323.34;5115967;28;20253;-65
2022/09/19 04:53:47;;;;;;;5.13;1.20;;;;;;;8.67;100.00;98321.91;5116594;28;20642;-65
2022/09/19 04:56:14;;;;;;;3.30;1.03;;;;;;;8.67;100.00;98316.63;5114754;28;20277;-66
2022/09/19 04:58:42;;;;;;;1.70;0.87;;;;;;;8.71;100.00;98324.28;5116663;28;20558;-66
2022/09/19 05:01:10;;;;;;;2.57;0.90;;;;;;;8.73;100.00;98321.53;5115995;28;20283;-66
2022/09/19 05:03:37;;;;;;;3.20;0.97;;;;;;;8.75;100.00;98335.50;5116664;28;20221;-66
2022/09/19 05:06:05;;;;;;;2.60;1.00;;;;;;;8.76;100.00;98329.28;5116505;28;20239;-66
2022/09/19 05:08:33;;;;;;;3.20;0.90;;;;;;;8.78;100.00;98324.75;5116636;28;20225;-65
2022/09/19 05:11:02;;;;;;;3.00;1.03;;;;;;;8.84;100.00;98337.56;5115960;28;20276;-65
2022/09/19 05:13:30;;;;;;;2.13;0.93;;;;;;;8.84;100.00;98335.78;5117473;28;20268;-65
2022/09/19 05:16:00;;;;;;;3.63;1.07;;;;;;;8.89;100.00;98348.69;5120463;28;20303;-65
2022/09/19 05:18:27;;;;;;;5.17;1.00;;;;;;;8.88;100.00;98347.00;5120613;28;20230;-65
2022/09/19 05:20:56;;;;;;;2.00;1.27;;;;;;;8.92;100.00;98353.75;5119909;28;20619;-64
2022/09/19 05:23:23;;;;;;;4.33;1.27;;;;;;;8.95;100.00;98356.25;5118742;28;20298;-65
2022/09/19 05:25:53;;;;;;;4.47;1.13;;;;;;;8.97;100.00;98367.53;5120478;28;20227;-65
2022/09/19 05:28:21;;;;;;;5.33;1.33;;;;;;;9.02;100.00;98370.75;5119657;28;20222;-65
2022/09/19 05:30:54;;;;;;;6.13;1.60;;;;;;;9.04;100.00;98363.59;5088939;28;20231;-65
2022/09/19 05:33:25;;;;;;;3.77;1.27;;;;;;;9.04;100.00;98367.09;5119983;28;20352;-65
2022/09/19 05:35:52;;;;;;;4.83;1.20;;;;;;;9.08;100.00;98371.25;5120130;28;20246;-65
2022/09/19 05:38:18;;;;;;;2.97;1.23;;;;;;;9.20;100.00;98374.94;5119645;28;20301;-65
2022/09/19 05:40:45;;;;;;;2.17;1.07;;;;;;;9.24;100.00;98376.47;5120251;28;20565;-65
2022/09/19 05:43:12;;;;;;;2.93;1.10;;;;;;;9.31;100.00;98369.88;5120111;28;20227;-64
2022/09/19 05:45:38;;;;;;;2.87;1.10;;;;;;;9.32;100.00;98382.09;5120102;28;20261;-65
2022/09/19 05:48:07;;;;;;;4.13;1.23;;;;;;;9.37;100.00;98380.88;5117694;28;20261;-64
2022/09/19 05:50:36;;;;;;;3.17;1.07;;;;;;;9.43;100.00;98382.31;5119985;28;20619;-65
2022/09/19 05:55:58;;;;;;;1.67;1.10;;;;;;;9.50;100.00;98383.63;5036503;28;20537;-66
2022/09/19 05:58:25;;;;;;;4.27;1.40;;;;;;;9.49;100.00;98393.31;5099932;28;20262;-65
2022/09/19 06:00:52;;;;;;;3.50;1.20;;;;;;;9.55;100.00;98397.41;5119748;28;20223;-65
2022/09/19 06:03:21;;;;;;;2.70;1.10;;;;;;;9.57;100.00;98400.78;5119651;28;20570;-65
2022/09/19 06:05:50;;;;;;;4.97;1.13;;;;;;;9.64;100.00;98402.97;5106904;28;20726;-65
2022/09/19 06:08:18;;;;;;;3.63;1.30;;;;;;;9.68;100.00;98403.63;5118111;28;20228;-64
2022/09/19 06:10:45;;;;;;;2.73;1.20;;;;;;;9.70;100.00;98401.72;5117944;28;20260;-65
2022/09/19 06:13:13;;;;;;;3.47;1.40;;;;;;;9.75;100.00;98411.06;5118034;28;20224;-65
2022/09/19 06:15:40;;;;;;;2.63;0.80;;;;;;;9.75;100.00;98418.13;5115684;28;20596;-66
2022/09/19 06:18:09;;;;;;;2.57;1.13;;;;;;;9.75;100.00;98418.13;5118125;28;20277;-66
2022/09/19 06:20:36;;;;;;;8.50;1.20;;;;;;;9.80;100.00;98424.00;5118006;28;20292;-66
2022/09/19 06:23:06;;;;;;;4.20;1.97;;;;;;;9.90;100.00;98430.41;5112823;28;20283;-65
2022/09/19 06:25:34;;;;;;;4.67;1.30;;;;;;;9.94;100.00;98422.19;5114818;28;20227;-65
2022/09/19 06:28:03;;;;;;;3.60;0.90;;;;;;;9.96;100.00;98419.44;5117817;28;20218;-66
2022/09/19 06:30:30;;;;;;;3.97;1.57;;;;;;;10.02;100.00;98424.34;5117785;28;20267;-66
2022/09/19 06:32:56;;;;;;;4.13;1.60;;;;;;;10.16;100.00;98432.31;5117780;28;20261;-65
2022/09/19 06:35:27;;;;;;;5.00;1.27;;;;;;;10.25;100.00;98431.72;5117036;28;20269;-65
2022/09/19 06:37:59;;;;;;;2.63;1.40;;;;;;;10.28;100.00;98436.81;5117584;28;20225;-65
2022/09/19 06:40:27;;;;;;;6.63;1.80;;;;;;;10.38;100.00;98437.91;5115869;28;20225;-65
2022/09/19 06:42:58;;;;;;;4.20;1.50;;;;;;;10.37;100.00;98447.66;5117547;28;20257;-65
2022/09/19 06:45:25;;;;;;;3.73;1.80;;;;;;;10.45;100.00;98452.44;5101944;28;20244;-66
2022/09/19 06:47:56;;;;;;;4.33;1.50;;;;;;;10.51;100.00;98449.41;5117537;28;20255;-65
2022/09/19 06:50:24;;;;;;;4.03;1.20;;;;;;;10.46;100.00;98457.63;5117471;28;20261;-66
2022/09/19 06:52:50;;;;;;;4.67;2.03;;;;;;;10.46;100.00;98456.78;5117441;28;20645;-66
2022/09/19 06:55:17;;;;;;;4.60;1.30;;;;;;;10.41;100.00;98453.59;5116566;28;20222;-65
2022/09/19 06:57:54;;;;;;;5.00;1.37;;;;;;;10.45;100.00;98460.38;5117386;28;20322;-65
2022/09/19 07:00:22;;;;;;;4.13;1.37;;;;;;;10.48;100.00;98460.16;5117222;28;20273;-66
2022/09/19 07:02:49;;;;;;;1.87;1.17;;;;;;;10.50;100.00;98463.56;5116672;28;20226;-66
2022/09/19 07:05:16;;;;;;;3.90;1.60;;;;;;;10.58;100.00;98469.22;5117137;28;20223;-67
2022/09/19 07:07:42;;;;;;;4.10;1.30;;;;;;;10.63;100.00;98467.09;5115492;28;20299;-65
2022/09/19 07:10:09;;;;;;;3.90;1.23;;;;;;;10.69;100.00;98466.72;5117064;28;20318;-65
2022/09/19 07:12:36;;;;;;;4.70;1.20;;;;;;;10.72;100.00;98475.31;5116384;28;20284;-65
2022/09/19 07:15:05;;;;;;;3.57;1.20;;;;;;;10.77;100.00;98477.66;5116914;28;20273;-65
2022/09/19 07:17:31;;;;;;;3.10;1.20;;;;;;;10.78;100.00;98477.56;5116884;28;20273;-65
2022/09/19 07:20:00;;;;;;;5.27;1.50;;;;;;;10.79;100.00;98486.34;5114930;28;20261;-65
2022/09/19 07:22:27;;;;;;;4.17;1.40;;;;;;;10.80;100.00;98486.25;5113223;28;20246;-65
2022/09/19 07:24:54;;;;;;;5.30;1.40;;;;;;;10.76;100.00;98473.31;5084808;28;20266;-64
2022/09/19 07:27:21;;;;;;;3.00;1.23;;;;;;;10.77;100.00;98482.94;5115888;28;20222;-63
2022/09/19 07:29:47;;;;;;;5.00;1.30;;;;;;;10.88;100.00;98485.75;5089532;28;20640;-63
2022/09/19 07:32:15;;;;;;;6.87;1.60;;;;;;;10.98;100.00;98484.19;5095457;28;20261;-65
2022/09/19 07:34:42;;;;;;;4.73;1.50;;;;;;;11.03;99.94;98493.53;5094516;28;20604;-65
2022/09/19 07:37:09;;;;;;;4.00;1.20;;;;;;;11.20;100.00;98495.06;5094818;28;20592;-66
2022/09/19 07:39:35;;;;;;;4.53;1.70;;;;;;;11.27;99.68;98499.00;5095951;28;20271;-65
2022/09/19 07:42:02;;;;;;;4.53;1.30;;;;;;;11.28;97.52;98506.84;5081896;28;20255;-64
2022/09/19 07:44:29;;;;;;;5.30;1.30;;;;;;;11.33;98.25;98502.09;5082634;28;20226;-64
2022/09/19 07:49:40;;;;;;;5.70;1.40;;;;;;;11.35;97.15;98513.44;5095927;28;20222;-66
2022/09/19 07:52:07;;;;;;;4.57;1.30;;;;;;;11.31;98.30;98505.81;5097118;28;20286;-65
2022/09/19 07:54:34;;;;;;;5.30;1.63;;;;;;;11.35;97.71;98517.84;5096770;28;20273;-64
2022/09/19 07:57:01;;;;;;;3.63;1.63;;;;;;;11.50;97.61;98516.84;5096660;28;20245;-65
2022/09/19 07:59:27;;;;;;;5.47;1.43;;;;;;;11.64;97.79;98519.47;5094973;28;20227;-66
2022/09/19 08:01:54;;;;;;;2.57;1.30;;;;;;;11.74;97.55;98531.13;5097238;28;20571;-64
2022/09/19 08:04:21;;;;;;;2.67;1.20;;;;;;;11.81;97.39;98533.25;5096609;28;20267;-64
2022/09/19 08:06:49;;;;;;;4.33;1.57;;;;;;;11.79;96.54;98531.69;5096405;28;20228;-65
2022/09/19 08:09:16;;;;;;;3.30;1.63;;;;;;;11.74;96.04;98547.84;5096627;28;20290;-66
2022/09/19 08:11:43;;;;;;;4.40;1.37;;;;;;;11.69;96.15;98543.84;5096885;28;20291;-65
2022/09/19 08:14:10;;;;;;;5.80;1.40;;;;;;;11.69;96.51;98542.00;5096592;28;20527;-65
2022/09/19 08:16:36;;;;;;;7.30;1.50;;;;;;;11.66;95.62;98549.31;5096374;28;20274;-65
2022/09/19 08:19:04;;;;;;;3.30;1.30;;;;;;;11.63;95.95;98554.81;5096383;28;20226;-66
2022/09/19 08:21:32;;;;;;;6.83;1.70;;;;;;;11.63;96.96;98549.53;5096681;28;20257;-65
2022/09/19 08:24:00;;;;;;;3.70;1.43;;;;;;;11.72;96.94;98555.06;5096233;28;20241;-65
2022/09/19 08:26:27;;;;;;;4.80;1.70;;;;;;;11.80;96.92;98551.91;5094497;28;20236;-65
2022/09/19 08:28:54;;;;;;;5.23;1.83;;;;;;;11.89;96.49;98557.44;5096167;28;20311;-65
2022/09/19 08:31:20;;;;;;;6.33;1.50;;;;;;;11.95;94.40;98553.50;5096467;28;20674;-65
2022/09/19 08:33:48;;;;;;;4.67;1.47;;;;;;;12.06;94.65;98549.19;5096153;28;20308;-65
2022/09/19 08:36:16;;;;;;;6.70;2.00;;;;;;;12.15;92.91;98558.28;5095990;28;20289;-65
2022/09/19 08:38:43;;;;;;;5.67;1.50;;;;;;;12.25;92.50;98565.50;5095942;28;20316;-65
2022/09/19 08:41:30;;;;;;;9.23;1.70;;;;;;;12.24;91.59;98557.66;5096268;28;20319;-66
2022/09/19 08:44:06;;;;;;;3.53;1.33;;;;;;;12.30;92.46;98558.06;5095788;28;20264;-65
2022/09/19 08:46:37;;;;;;;8.07;1.90;;;;;;;12.53;90.88;98552.00;5095826;28;20279;-66
2022/09/19 08:49:11;;;;;;;5.40;1.40;;;;;;;12.55;88.82;98568.69;5096213;28;20279;-64
2022/09/19 08:51:51;;;;;;;5.37;2.57;;;;;;;12.53;89.05;98569.75;5095610;28;20303;-67
2022/09/19 08:54:23;;;;;;;7.70;1.90;;;;;;;12.51;88.63;98566.34;5094171;28;20259;-65
2022/09/19 08:56:52;;;;;;;7.17;1.50;;;;;;;12.46;88.73;98573.78;5111770;28;20252;-66
2022/09/19 08:59:23;;;;;;;7.10;1.87;;;;;;;12.35;89.72;98579.81;5095774;28;20537;-65
2022/09/19 09:01:55;;;;;;;3.77;1.60;;;;;;;12.31;88.66;98580.13;5094135;28;20274;-64
2022/09/19 09:04:27;;;;;;;5.57;1.33;;;;;;;12.14;89.39;98583.09;5093678;28;20261;-65
2022/09/19 09:07:17;;;;;;;7.70;1.70;;;;;;;12.03;90.34;98590.91;5095303;28;20659;-65
2022/09/19 09:10:02;;;;;;;4.37;1.67;;;;;;;11.85;89.91;98590.34;5094276;28;20649;-67
2022/09/19 09:12:41;;;;;;;3.37;1.57;;;;;;;11.78;90.40;98590.88;5084750;28;20223;-66
2022/09/19 09:15:20;;;;;;;5.50;1.80;;;;;;;11.82;89.24;98595.00;5089850;28;20226;-66
2022/09/19 09:18:02;;;;;;;4.27;1.57;;;;;;;11.74;91.10;98597.34;5098705;28;20347;-65
2022/09/19 09:20:43;;;;;;;6.17;1.63;;;;;;;11.72;91.24;98601.88;5095047;28;20320;-65
2022/09/19 09:23:15;;;;;;;3.07;1.57;;;;;;;11.85;91.67;98600.09;5099450;28;20221;-65
2022/09/19 09:25:46;;;;;;;3.13;1.77;;;;;;;11.86;90.39;98596.53;5098647;28;20626;-66
2022/09/19 09:28:18;;;;;;;4.80;1.70;;;;;;;11.93;89.58;98595.16;5103275;28;20254;-65
2022/09/19 09:30:49;;;;;;;4.37;1.90;;;;;;;11.92;89.12;98598.75;5088307;28;20308;-64
2022/09/19 09:33:22;;;;;;;5.13;1.50;;;;;;;11.95;88.93;98598.53;5098672;28;20276;-64
2022/09/19 09:35:55;;;;;;;4.73;1.33;;;;;;;12.14;88.89;98599.00;5101683;28;20226;-65
2022/09/19 09:38:30;;;;;;;3.40;1.50;;;;;;;12.18;89.21;98597.84;5100469;28;20284;-64
2022/09/19 09:43:59;;;;;;;3.43;1.63;;;;;;;12.50;86.35;98597.31;5102686;28;20216;-66
2022/09/19 09:46:35;;;;;;;3.33;1.50;;;;;;;12.57;85.12;98592.41;5086833;28;20239;-66
2022/09/19 09:49:02;;;;;;;5.50;1.60;;;;;;;12.61;84.28;98593.91;5100176;28;20230;-66
2022/09/19 09:51:39;;;;;;;4.47;1.93;;;;;;;12.80;84.04;98595.16;5101260;28;20249;-66
2022/09/19 09:57:11;;;;;;;7.43;1.83;;;;;;;13.35;86.22;98592.06;5099822;28;20342;-65
2022/09/19 10:05:33;;;;;;;5.13;2.27;;;;;;;13.59;85.89;98591.13;5106792;28;20648;-65
2022/09/19 10:08:14;;;;;;;3.10;1.40;;;;;;;13.78;83.54;98585.28;5091735;28;20248;-67
2022/09/19 10:10:43;;;;;;;5.00;1.80;;;;;;;13.87;82.35;98588.09;5103327;28;20318;-66
2022/09/19 10:13:21;;;;;;;4.87;1.40;;;;;;;13.76;80.28;98588.03;5104873;28;20290;-66
2022/09/19 10:15:54;;;;;;;3.13;1.90;;;;;;;13.69;81.80;98596.63;5103655;28;20291;-66
2022/09/19 10:18:25;;;;;;;1.73;1.37;;;;;;;13.79;82.17;98587.84;5103003;28;20245;-66
2022/09/19 10:20:54;;;;;;;3.70;1.53;;;;;;;13.85;81.30;98586.50;5104215;28;20228;-67
2022/09/19 10:23:24;;;;;;;4.93;1.67;;;;;;;13.91;82.14;98594.88;5106099;28;20249;-68
2022/09/19 10:25:59;;;;;;;4.53;2.07;;;;;;;13.97;80.55;98585.59;5103036;28;20269;-66
2022/09/19 10:28:30;;;;;;;4.13;2.37;;;;;;;14.06;81.43;98584.91;5099891;28;20709;-67
2022/09/19 10:31:01;;;;;;;7.03;2.73;;;;;;;14.21;80.46;98584.63;5106185;28;20353;-67
2022/09/19 10:33:38;;;;;;;7.77;4.40;;;;;;;14.44;81.33;98588.16;5103743;28;20717;-66
2022/09/19 10:36:07;;;;;;;3.43;2.10;;;;;;;14.70;80.16;98582.50;5102845;28;20589;-65
2022/09/19 10:38:47;;;;;;;2.77;1.30;;;;;;;15.08;78.65;98572.31;5103645;28;20439;-65
2022/09/19 10:41:15;;;;;;;4.43;1.93;;;;;;;15.30;76.50;98574.09;5102685;28;20264;-65
2022/09/19 10:43:46;;;;;;;5.70;1.20;;;;;;;15.18;72.49;98578.59;5102656;28;20227;-64
2022/09/19 10:46:20;;;;;;;3.00;1.20;;;;;;;15.10;73.34;98580.19;5102784;28;20422;-65
2022/09/19 10:48:52;;;;;;;3.13;1.33;;;;;;;15.10;73.21;98575.69;5097700;28;20541;-64
2022/09/19 10:51:20;;;;;;;3.73;1.40;;;;;;;15.29;74.47;98580.41;5091316;28;20270;-65
2022/09/19 10:53:52;;;;;;;3.53;1.30;;;;;;;15.50;72.77;98574.19;5102479;28;20223;-65
2022/09/19 10:56:22;;;;;;;3.13;1.53;;;;;;;15.52;72.48;98584.72;5103972;28;20261;-66
2022/09/19 10:58:53;;;;;;;4.33;1.50;;;;;;;15.74;72.77;98581.97;5104962;28;20710;-65
2022/09/19 11:01:24;;;;;;;4.27;1.30;;;;;;;15.52;70.26;98582.06;5102407;28;20255;-67
2022/09/19 11:04:02;;;;;;;3.13;1.20;;;;;;;15.18;71.63;98580.41;5101990;28;20223;-64
2022/09/19 11:06:29;;;;;;;1.40;1.10;;;;;;;14.90;73.28;98580.94;5096900;28;20315;-65
2022/09/19 11:08:57;;;;;;;3.50;1.30;;;;;;;14.65;74.50;98579.34;5101122;28;20226;-65
2022/09/19 11:11:32;;;;;;;3.57;1.40;;;;;;;14.53;76.67;98590.09;5100921;28;20231;-66
2022/09/19 11:14:31;;;;;;;3.00;1.50;;;;;;;14.54;77.07;98587.31;5103080;28;20230;-65
2022/09/19 11:17:29;;;;;;;2.33;1.00;;;;;;;14.65;77.94;98592.66;5075950;28;20652;-67
2022/09/19 11:20:16;;;;;;;2.07;1.10;;;;;;;14.86;76.54;98590.13;5068245;28;20274;-66
2022/09/19 11:23:13;;;;;;;7.87;1.70;;;;;;;14.98;76.85;98581.16;5101991;28;20226;-66
2022/09/19 11:25:48;;;;;;;3.50;1.60;;;;;;;15.08;75.50;98587.44;5101954;28;20223;-66
2022/09/19 11:28:24;;;;;;;2.80;1.17;;;;;;;15.07;73.05;98591.06;5105087;28;20262;-67
2022/09/19 11:31:02;;;;;;;3.80;1.50;;;;;;;15.21;72.90;98593.50;5098838;28;20280;-66
2022/09/19 11:33:44;;;;;;;3.87;1.30;;;;;;;15.15;74.04;98586.81;5098935;28;20471;-64
2022/09/19 11:36:20;;;;;;;3.43;1.43;;;;;;;15.24;73.90;98593.22;5098250;28;20305;-66
2022/09/19 11:38:56;;;;;;;2.70;1.37;;;;;;;15.38;76.59;98591.19;5098164;28;20316;-66
2022/09/19 11:41:36;;;;;;;3.83;1.20;;;;;;;15.48;72.12;98591.28;5085085;28;20325;-65
2022/09/19 11:44:24;;;;;;;3.33;1.30;;;;;;;15.35;72.35;98588.78;5109206;28;20538;-65
2022/09/19 11:46:56;;;;;;;5.33;1.30;;;;;;;15.07;73.86;98588.41;5087400;28;20254;-65
2022/09/19 11:49:41;;;;;;;4.30;1.50;;;;;;;14.87;76.59;98586.50;5112695;28;20266;-65
2022/09/19 11:52:17;;;;;;;2.07;1.20;;;;;;;14.80;79.88;98588.78;5110193;28;20747;-65
2022/09/19 11:55:00;;;;;;;2.83;1.50;;;;;;;15.03;80.55;98589.63;5087727;28;20226;-64
2022/09/19 11:57:39;;;;;;;3.43;1.43;;;;;;;15.23;77.35;98580.88;5112736;28;20273;-64
2022/09/19 12:00:13;;;;;;;4.97;2.40;;;;;;;15.19;75.83;98576.78;5108095;28;20310;-64
2022/09/19 12:02:58;;;;;;;5.27;2.30;;;;;;;15.31;80.05;98583.75;5109492;28;20612;-65
2022/09/19 12:05:32;;;;;;;4.50;1.50;;;;;;;15.71;76.82;98582.25;5107550;28;20227;-64
2022/09/19 12:08:15;;;;;;;3.43;1.63;;;;;;;15.98;76.73;98577.28;5108725;28;20279;-65
2022/09/19 12:10:47;;;;;;;2.63;1.10;;;;;;;16.03;72.37;98567.94;5112269;28;20227;-64